createdAt,value
2023-01-07T00:01:36.998Z,7.41
2023-01-07T00:04:06.515Z,7.41
2023-01-07T00:06:37.394Z,7.42
2023-01-07T00:09:07.198Z,7.42
2023-01-07T00:11:39.392Z,7.34
2023-01-07T00:14:09.880Z,7.41
2023-01-07T00:16:38.488Z,7.37
2023-01-07T00:19:07.617Z,7.36
2023-01-07T00:21:34.645Z,7.36
2023-01-07T00:24:04.830Z,7.33
2023-01-07T00:26:35.732Z,7.39
2023-01-07T00:29:03.291Z,7.33
2023-01-07T00:31:36.314Z,7.32
2023-01-07T00:34:03.348Z,7.28
2023-01-07T00:36:39.870Z,7.33
2023-01-07T00:39:10.980Z,7.34
2023-01-07T00:41:38.459Z,7.37
2023-01-07T00:44:07.233Z,7.35
2023-01-07T00:46:34.356Z,7.30
2023-01-07T00:49:02.168Z,7.34
2023-01-07T00:51:29.084Z,7.23
2023-01-07T00:53:55.881Z,7.21
2023-01-07T00:56:22.669Z,7.21
2023-01-07T00:58:49.483Z,7.24
2023-01-07T01:01:16.449Z,7.26
2023-01-07T01:03:43.341Z,7.32
2023-01-07T01:06:15.891Z,7.35
2023-01-07T01:08:45.477Z,7.35
2023-01-07T01:11:15.211Z,7.37
2023-01-07T01:13:43.351Z,7.29
2023-01-07T01:16:17.725Z,7.24
2023-01-07T01:18:45.809Z,7.35
2023-01-07T01:21:14.992Z,7.33
2023-01-07T01:23:42.927Z,7.32
2023-01-07T01:26:16.934Z,7.31
2023-01-07T01:28:44.639Z,7.29
2023-01-07T01:31:11.936Z,7.28
2023-01-07T01:33:38.719Z,7.26
2023-01-07T01:36:08.196Z,7.31
2023-01-07T01:38:35.115Z,7.22
2023-01-07T01:41:02.194Z,7.25
2023-01-07T01:43:33.429Z,7.23
2023-01-07T01:46:22.461Z,7.21
2023-01-07T01:49:28.598Z,7.18
2023-01-07T01:52:02.034Z,7.19
2023-01-07T01:54:29.509Z,7.19
2023-01-07T01:57:00.292Z,7.15
2023-01-07T01:59:31.357Z,7.17
2023-01-07T02:01:58.345Z,7.13
2023-01-07T02:04:27.532Z,7.24
2023-01-07T02:07:12.718Z,7.19
2023-01-07T02:09:39.451Z,7.14
2023-01-07T02:12:22.159Z,7.08
2023-01-07T02:15:13.430Z,7.13
2023-01-07T02:17:56.167Z,7.16
2023-01-07T02:20:46.927Z,7.18
2023-01-07T02:24:04.263Z,7.20
2023-01-07T02:26:58.252Z,7.14
2023-01-07T02:30:04.925Z,7.16
2023-01-07T02:32:57.334Z,7.14
2023-01-07T02:36:06.302Z,7.13
2023-01-07T02:38:38.793Z,7.13
2023-01-07T02:41:23.887Z,7.13
2023-01-07T02:44:01.589Z,7.10
2023-01-07T02:46:39.164Z,7.09
2023-01-07T02:49:10.285Z,7.11
2023-01-07T02:51:40.355Z,7.03
2023-01-07T02:54:16.842Z,7.08
2023-01-07T02:57:42.401Z,7.07
2023-01-07T03:00:39.924Z,7.08
2023-01-07T03:03:27.045Z,7.04
2023-01-07T03:06:24.631Z,6.99
2023-01-07T03:09:12.578Z,7.03
2023-01-07T03:11:49.714Z,7.07
2023-01-07T03:14:26.540Z,7.00
2023-01-07T03:17:03.225Z,7.01
2023-01-07T03:19:35.710Z,6.96
2023-01-07T03:22:07.252Z,6.99
2023-01-07T03:24:34.065Z,7.01
2023-01-07T03:27:04.516Z,7.05
2023-01-07T03:29:32.461Z,7.02
2023-01-07T03:32:08.719Z,7.06
2023-01-07T03:34:37.559Z,7.08
2023-01-07T03:37:10.596Z,7.06
2023-01-07T03:39:38.852Z,7.10
2023-01-07T03:42:30.277Z,7.05
2023-01-07T03:44:58.166Z,7.03
2023-01-07T03:47:25.773Z,7.02
2023-01-07T03:49:52.489Z,6.99
2023-01-07T03:52:19.248Z,6.99
2023-01-07T03:54:46.008Z,6.96
2023-01-07T03:57:12.749Z,6.95
2023-01-07T03:59:39.494Z,6.98
2023-01-07T04:02:06.436Z,6.91
2023-01-07T04:04:33.366Z,7.00
2023-01-07T04:07:00.138Z,6.97
2023-01-07T04:09:26.899Z,6.94
2023-01-07T04:11:53.788Z,6.93
2023-01-07T04:14:20.532Z,6.91
2023-01-07T04:16:47.437Z,7.02
2023-01-07T04:19:14.210Z,6.88
2023-01-07T04:21:41.031Z,6.91
2023-01-07T04:24:08.308Z,6.95
2023-01-07T04:26:35.083Z,6.88
2023-01-07T04:29:01.883Z,6.92
2023-01-07T04:31:28.599Z,6.93
2023-01-07T04:33:55.499Z,6.92
2023-01-07T04:36:22.256Z,6.88
2023-01-07T04:38:49.243Z,6.91
2023-01-07T04:41:16.180Z,6.92
2023-01-07T04:43:42.909Z,6.92
2023-01-07T04:46:09.696Z,6.93
2023-01-07T04:48:36.514Z,6.88
2023-01-07T04:51:03.549Z,6.90
2023-01-07T04:53:30.403Z,6.94
2023-01-07T04:55:57.174Z,6.96
2023-01-07T04:58:23.986Z,6.89
2023-01-07T05:00:52.359Z,6.92
2023-01-07T05:03:20.040Z,6.90
2023-01-07T05:05:46.912Z,6.95
2023-01-07T05:08:13.642Z,6.92
2023-01-07T05:10:40.402Z,6.91
2023-01-07T05:13:07.280Z,6.89
2023-01-07T05:15:34.547Z,6.92
2023-01-07T05:18:01.315Z,6.87
2023-01-07T05:20:28.076Z,6.93
2023-01-07T05:22:54.878Z,6.86
2023-01-07T05:25:21.635Z,6.88
2023-01-07T05:27:48.364Z,6.89
2023-01-07T05:30:15.261Z,6.86
2023-01-07T05:32:42.464Z,6.95
2023-01-07T05:35:09.568Z,6.92
2023-01-07T05:37:36.282Z,6.84
2023-01-07T05:40:03.092Z,6.91
2023-01-07T05:42:29.821Z,6.86
2023-01-07T05:44:56.622Z,6.79
2023-01-07T05:47:23.459Z,6.77
2023-01-07T05:49:50.297Z,6.76
2023-01-07T05:52:17.261Z,6.74
2023-01-07T05:54:43.983Z,6.78
2023-01-07T05:57:11.401Z,6.79
2023-01-07T05:59:38.194Z,6.81
2023-01-07T06:02:05.066Z,6.70
2023-01-07T06:04:32.103Z,6.68
2023-01-07T06:06:58.867Z,6.75
2023-01-07T06:09:25.603Z,6.70
2023-01-07T06:11:52.406Z,6.71
2023-01-07T06:14:19.328Z,6.75
2023-01-07T06:16:46.059Z,6.76
2023-01-07T06:19:12.847Z,6.75
2023-01-07T06:21:39.632Z,6.75
2023-01-07T06:24:07.760Z,6.79
2023-01-07T06:26:34.498Z,6.77
2023-01-07T06:29:01.199Z,6.81
2023-01-07T06:31:27.974Z,6.76
2023-01-07T06:33:55.771Z,6.70
2023-01-07T06:36:22.536Z,6.76
2023-01-07T06:38:49.271Z,6.66
2023-01-07T06:41:16.044Z,6.63
2023-01-07T06:43:42.788Z,6.65
2023-01-07T06:46:09.686Z,6.63
2023-01-07T06:48:36.433Z,6.64
2023-01-07T06:51:03.263Z,6.73
2023-01-07T06:53:30.089Z,6.69
2023-01-07T06:55:56.956Z,6.75
2023-01-07T06:58:23.696Z,6.75
2023-01-07T07:00:50.500Z,6.74
2023-01-07T07:03:17.300Z,6.71
2023-01-07T07:05:44.156Z,6.73
2023-01-07T07:08:11.462Z,6.82
2023-01-07T07:10:38.998Z,6.77
2023-01-07T07:13:05.787Z,6.71
2023-01-07T07:15:32.535Z,6.76
2023-01-07T07:17:59.251Z,6.74
2023-01-07T07:20:25.979Z,6.72
2023-01-07T07:22:52.695Z,6.73
2023-01-07T07:25:19.725Z,6.76
2023-01-07T07:27:47.437Z,6.74
2023-01-07T07:30:15.790Z,6.71
2023-01-07T07:32:43.232Z,6.80
2023-01-07T07:35:11.092Z,6.67
2023-01-07T07:37:38.367Z,6.72
2023-01-07T07:40:06.507Z,6.62
2023-01-07T07:43:10.248Z,6.66
2023-01-07T07:45:20.184Z,6.46
2023-01-07T07:47:47.308Z,6.43
2023-01-07T07:50:14.072Z,6.50
2023-01-07T07:52:40.985Z,6.54
2023-01-07T07:55:20.175Z,6.65
2023-01-07T07:57:57.041Z,6.55
2023-01-07T08:00:24.690Z,6.67
2023-01-07T08:02:51.440Z,6.60
2023-01-07T08:05:18.326Z,6.61
2023-01-07T08:07:45.087Z,6.76
2023-01-07T08:10:11.842Z,6.82
2023-01-07T08:12:39.565Z,6.82
2023-01-07T08:15:08.406Z,6.69
2023-01-07T08:17:36.556Z,6.71
2023-01-07T08:20:08.422Z,6.75
2023-01-07T08:22:35.634Z,6.78
2023-01-07T08:25:03.098Z,6.78
2023-01-07T08:27:30.116Z,6.55
2023-01-07T08:29:57.268Z,6.64
2023-01-07T08:32:24.159Z,6.65
2023-01-07T08:34:50.929Z,6.74
2023-01-07T08:37:17.680Z,6.61
2023-01-07T08:39:44.514Z,6.61
2023-01-07T08:42:11.259Z,6.66
2023-01-07T08:44:37.995Z,6.61
2023-01-07T08:47:04.788Z,6.66
2023-01-07T08:49:31.960Z,6.67
2023-01-07T08:51:58.721Z,6.76
2023-01-07T08:54:25.474Z,6.70
2023-01-07T08:56:52.237Z,6.76
2023-01-07T08:59:19.038Z,6.72
2023-01-07T09:01:45.958Z,6.74
2023-01-07T09:04:12.799Z,6.73
2023-01-07T09:06:39.552Z,6.69
2023-01-07T09:09:06.510Z,6.67
2023-01-07T09:11:33.277Z,6.65
2023-01-07T09:14:00.028Z,6.40
2023-01-07T09:16:26.776Z,6.55
2023-01-07T09:18:53.506Z,6.53
2023-01-07T09:21:20.293Z,6.63
2023-01-07T09:23:47.029Z,6.62
2023-01-07T09:26:13.852Z,6.68
2023-01-07T09:28:40.596Z,6.60
2023-01-07T09:31:08.129Z,6.56
2023-01-07T09:33:35.126Z,6.50
2023-01-07T09:36:01.909Z,6.64
2023-01-07T09:38:28.806Z,6.64
2023-01-07T09:40:55.847Z,6.72
2023-01-07T09:44:00.533Z,6.70
2023-01-07T09:46:20.843Z,6.60
2023-01-07T09:48:54.129Z,6.52
2023-01-07T09:51:39.124Z,6.73
2023-01-07T09:54:37.303Z,6.68
2023-01-07T09:57:04.978Z,6.74
2023-01-07T09:59:32.386Z,6.75
2023-01-07T10:02:32.100Z,6.69
2023-01-07T10:05:35.789Z,6.67
2023-01-07T10:08:32.538Z,6.60
2023-01-07T10:11:35.032Z,6.59
2023-01-07T10:14:37.068Z,6.53
2023-01-07T10:17:22.037Z,6.63
2023-01-07T10:20:10.004Z,6.53
2023-01-07T10:22:54.001Z,6.47
2023-01-07T10:25:25.614Z,6.60
2023-01-07T10:27:58.934Z,6.63
2023-01-07T10:30:30.543Z,6.72
2023-01-07T10:33:15.975Z,6.63
2023-01-07T10:35:42.891Z,6.66
2023-01-07T10:38:19.213Z,6.68
2023-01-07T10:40:51.123Z,6.80
2023-01-07T10:43:38.891Z,6.80
2023-01-07T10:46:17.720Z,6.81
2023-01-07T10:49:05.843Z,6.80
2023-01-07T10:52:11.427Z,6.91
2023-01-07T10:54:52.720Z,6.86
2023-01-07T10:57:26.209Z,6.67
2023-01-07T10:59:57.816Z,6.79
2023-01-07T11:02:27.795Z,6.91
2023-01-07T11:04:59.271Z,6.99
2023-01-07T11:07:54.047Z,7.04
2023-01-07T11:10:29.273Z,7.08
2023-01-07T11:13:01.862Z,7.02
2023-01-07T11:15:35.342Z,6.96
2023-01-07T11:18:11.760Z,7.07
2023-01-07T11:20:46.324Z,7.20
2023-01-07T11:23:29.061Z,7.39
2023-01-07T11:26:10.943Z,7.32
2023-01-07T11:28:47.518Z,7.31
2023-01-07T11:31:14.252Z,7.45
2023-01-07T11:34:01.957Z,7.52
2023-01-07T11:36:41.895Z,7.55
2023-01-07T11:39:19.982Z,7.59
2023-01-07T11:42:35.748Z,7.56
2023-01-07T11:46:19.184Z,7.43
2023-01-07T11:48:54.776Z,7.43
2023-01-07T11:51:23.206Z,7.46
2023-01-07T11:53:49.864Z,7.43
2023-01-07T11:56:28.177Z,7.46
2023-01-07T11:59:15.682Z,7.51
2023-01-07T12:01:53.637Z,7.39
2023-01-07T12:04:33.686Z,7.44
2023-01-07T12:07:15.671Z,7.44
2023-01-07T12:09:44.855Z,7.30
2023-01-07T12:12:34.748Z,7.51
2023-01-07T12:15:06.920Z,7.53
2023-01-07T12:17:35.404Z,7.44
2023-01-07T12:20:39.532Z,7.58
2023-01-07T12:23:22.334Z,7.59
2023-01-07T12:26:08.979Z,7.64
2023-01-07T12:29:37.733Z,7.80
2023-01-07T12:32:31.713Z,7.95
2023-01-07T12:35:14.356Z,7.86
2023-01-07T12:38:03.551Z,7.82
2023-01-07T12:40:41.987Z,7.95
2023-01-07T12:43:20.466Z,8.16
2023-01-07T12:46:00.398Z,8.17
2023-01-07T12:48:38.874Z,8.36
2023-01-07T12:51:17.220Z,8.51
2023-01-07T12:54:13.092Z,8.49
2023-01-07T12:56:49.588Z,8.47
2023-01-07T12:59:46.041Z,8.38
2023-01-07T13:02:19.912Z,8.20
2023-01-07T13:05:12.863Z,8.34
2023-01-07T13:08:17.912Z,8.25
2023-01-07T13:11:14.767Z,8.39
2023-01-07T13:13:48.809Z,8.58
2023-01-07T13:16:15.684Z,8.80
2023-01-07T13:18:42.488Z,8.77
2023-01-07T13:21:11.282Z,8.72
2023-01-07T13:23:56.596Z,8.36
2023-01-07T13:26:49.290Z,8.51
2023-01-07T13:29:47.142Z,8.44
2023-01-07T13:32:52.637Z,8.60
2023-01-07T13:36:03.436Z,8.72
2023-01-07T13:39:05.050Z,8.74
2023-01-07T13:42:22.084Z,8.83
2023-01-07T13:45:02.375Z,8.83
2023-01-07T13:47:42.312Z,8.87
2023-01-07T13:50:37.835Z,9.09
2023-01-07T13:53:28.117Z,9.18
2023-01-07T13:56:17.557Z,9.22
2023-01-07T13:58:50.073Z,9.31
2023-01-07T14:01:19.557Z,9.10
2023-01-07T14:04:06.289Z,9.31
2023-01-07T14:06:39.502Z,9.13
2023-01-07T14:09:13.533Z,9.21
2023-01-07T14:12:29.941Z,8.99
2023-01-07T14:15:37.306Z,9.15
2023-01-07T14:18:26.304Z,8.56
2023-01-07T14:21:11.292Z,8.88
2023-01-07T14:24:04.927Z,9.05
2023-01-07T14:26:43.800Z,8.93
2023-01-07T14:29:40.959Z,8.47
2023-01-07T14:32:30.936Z,8.39
2023-01-07T14:35:03.540Z,8.27
2023-01-07T14:37:45.230Z,8.16
2023-01-07T14:40:27.331Z,8.23
2023-01-07T14:42:55.631Z,8.22
2023-01-07T14:45:37.124Z,8.20
2023-01-07T14:48:12.777Z,8.12
2023-01-07T14:51:00.639Z,8.07
2023-01-07T14:54:13.287Z,8.05
2023-01-07T14:57:10.204Z,8.01
2023-01-07T15:00:06.215Z,7.97
2023-01-07T15:03:18.728Z,7.81
2023-01-07T15:06:26.866Z,7.77
2023-01-07T15:09:30.484Z,7.78
2023-01-07T15:12:18.667Z,7.76
2023-01-07T15:15:12.512Z,7.71
2023-01-07T15:17:40.165Z,7.68
2023-01-07T15:20:10.349Z,7.65
2023-01-07T15:22:55.607Z,7.61
2023-01-07T15:25:45.552Z,7.50
2023-01-07T15:28:21.108Z,7.44
2023-01-07T15:31:04.870Z,7.34
2023-01-07T15:33:53.279Z,7.20
2023-01-07T15:36:20.221Z,7.12
2023-01-07T15:38:53.896Z,7.12
2023-01-07T15:41:36.606Z,7.01
2023-01-07T15:44:41.270Z,6.85
2023-01-07T15:47:43.444Z,6.74
2023-01-07T15:50:24.128Z,6.67
2023-01-07T15:53:00.156Z,6.56
2023-01-07T15:55:35.010Z,6.36
2023-01-07T15:58:12.447Z,6.31
2023-01-07T16:00:39.369Z,6.24
2023-01-07T16:03:07.757Z,6.07
2023-01-07T16:05:38.031Z,5.94
2023-01-07T16:08:05.801Z,5.85
2023-01-07T16:10:35.405Z,5.74
2023-01-07T16:13:06.134Z,5.68
2023-01-07T16:15:41.383Z,5.53
2023-01-07T16:18:11.357Z,5.50
2023-01-07T16:20:51.487Z,5.40
2023-01-07T16:23:31.066Z,5.24
2023-01-07T16:26:07.737Z,5.18
2023-01-07T16:28:41.727Z,5.10
2023-01-07T16:31:13.655Z,4.97
2023-01-07T16:33:42.507Z,4.98
2023-01-07T16:36:27.110Z,4.88
2023-01-07T16:38:58.954Z,4.78
2023-01-07T16:41:29.893Z,4.67
2023-01-07T16:44:00.399Z,4.64
2023-01-07T16:46:33.261Z,4.56
2023-01-07T16:49:11.936Z,4.48
2023-01-07T16:52:06.908Z,4.40
2023-01-07T16:54:40.109Z,4.30
2023-01-07T16:57:12.541Z,4.30
2023-01-07T16:59:55.480Z,4.20
2023-01-07T17:02:37.499Z,4.20
2023-01-07T17:05:18.928Z,4.12
2023-01-07T17:08:03.142Z,4.02
2023-01-07T17:10:37.563Z,3.96
2023-01-07T17:13:24.208Z,3.95
2023-01-07T17:15:51.237Z,3.76
2023-01-07T17:18:18.028Z,3.84
2023-01-07T17:20:52.827Z,3.68
2023-01-07T17:23:27.940Z,3.71
2023-01-07T17:26:17.566Z,3.60
2023-01-07T17:28:52.756Z,3.51
2023-01-07T17:31:20.221Z,3.54
2023-01-07T17:33:47.400Z,3.45
2023-01-07T17:36:19.067Z,3.35
2023-01-07T17:38:46.405Z,3.24
2023-01-07T17:41:38.688Z,3.20
2023-01-07T17:44:08.155Z,3.17
2023-01-07T17:46:38.953Z,3.12
2023-01-07T17:49:05.824Z,3.09
2023-01-07T17:51:38.531Z,3.04
2023-01-07T17:54:06.886Z,2.91
2023-01-07T17:56:34.194Z,2.89
2023-01-07T17:59:01.019Z,2.83
2023-01-07T18:01:28.036Z,2.81
2023-01-07T18:03:54.904Z,2.76
2023-01-07T18:06:25.538Z,2.68
2023-01-07T18:08:53.106Z,2.62
2023-01-07T18:11:44.187Z,2.64
2023-01-07T18:14:14.826Z,2.56
2023-01-07T18:16:43.148Z,2.52
2023-01-07T18:19:14.640Z,2.45
2023-01-07T18:21:41.807Z,2.38
2023-01-07T18:24:20.381Z,2.43
2023-01-07T18:26:47.691Z,2.34
2023-01-07T18:29:14.760Z,2.28
2023-01-07T18:31:44.027Z,2.22
2023-01-07T18:34:14.352Z,2.19
2023-01-07T18:36:41.644Z,2.16
2023-01-07T18:39:11.002Z,2.13
2023-01-07T18:41:39.851Z,2.10
2023-01-07T18:44:06.948Z,2.05
2023-01-07T18:46:33.953Z,2.05
2023-01-07T18:49:00.917Z,1.99
2023-01-07T18:51:27.756Z,1.97
2023-01-07T18:53:54.450Z,1.89
2023-01-07T18:56:21.215Z,1.93
2023-01-07T18:58:48.290Z,1.89
2023-01-07T19:01:15.146Z,1.83
2023-01-07T19:03:42.154Z,1.77
2023-01-07T19:06:10.518Z,1.75
2023-01-07T19:08:38.147Z,1.71
2023-01-07T19:11:09.869Z,1.63
2023-01-07T19:13:36.914Z,1.59
2023-01-07T19:16:08.640Z,1.47
2023-01-07T19:18:35.617Z,1.50
2023-01-07T19:21:07.746Z,1.51
2023-01-07T19:23:34.725Z,1.45
2023-01-07T19:26:04.910Z,1.44
2023-01-07T19:28:32.885Z,1.39
2023-01-07T19:31:00.133Z,1.48
2023-01-07T19:33:26.905Z,1.39
2023-01-07T19:36:11.716Z,1.46
2023-01-07T19:38:48.860Z,1.36
2023-01-07T19:41:19.498Z,1.36
2023-01-07T19:43:47.364Z,1.37
2023-01-07T19:46:15.811Z,1.41
2023-01-07T19:48:43.046Z,1.44
2023-01-07T19:51:10.979Z,1.32
2023-01-07T19:53:38.323Z,1.35
2023-01-07T19:56:11.777Z,1.33
2023-01-07T19:58:40.341Z,1.29
2023-01-07T20:01:11.812Z,1.28
2023-01-07T20:03:39.177Z,1.27
2023-01-07T20:06:15.039Z,1.21
2023-01-07T20:08:42.026Z,1.13
2023-01-07T20:11:09.290Z,1.17
2023-01-07T20:13:37.915Z,1.25
2023-01-07T20:16:14.267Z,1.23
2023-01-07T20:18:46.734Z,1.15
2023-01-07T20:21:16.594Z,1.18
2023-01-07T20:23:44.311Z,1.14
2023-01-07T20:26:16.217Z,1.11
2023-01-07T20:28:43.824Z,1.07
2023-01-07T20:31:14.635Z,1.05
2023-01-07T20:33:42.841Z,1.08
2023-01-07T20:36:16.307Z,1.06
2023-01-07T20:38:44.685Z,1.11
2023-01-07T20:41:15.727Z,1.15
2023-01-07T20:43:42.594Z,1.12
2023-01-07T20:46:10.641Z,1.12
2023-01-07T20:48:37.993Z,1.06
2023-01-07T20:51:09.121Z,1.07
2023-01-07T20:53:37.130Z,1.03
2023-01-07T20:56:05.145Z,1.09
2023-01-07T20:58:34.695Z,1.10
2023-01-07T21:01:11.462Z,1.10
2023-01-07T21:03:39.549Z,1.03
2023-01-07T21:06:09.929Z,1.02
2023-01-07T21:08:37.992Z,1.02
2023-01-07T21:11:10.971Z,0.99
2023-01-07T21:13:37.716Z,1.00
2023-01-07T21:16:05.682Z,0.93
2023-01-07T21:18:33.932Z,0.91
2023-01-07T21:21:02.648Z,0.90
2023-01-07T21:23:29.378Z,0.88
2023-01-07T21:25:56.205Z,0.89
2023-01-07T21:28:22.907Z,0.94
2023-01-07T21:30:50.196Z,0.96
2023-01-07T21:33:17.143Z,0.92
2023-01-07T21:35:43.967Z,0.88
2023-01-07T21:38:10.735Z,0.91
2023-01-07T21:40:39.420Z,0.91
2023-01-07T21:43:06.777Z,0.87
2023-01-07T21:45:33.738Z,0.84
2023-01-07T21:48:00.586Z,0.86
2023-01-07T21:50:27.371Z,0.84
2023-01-07T21:52:54.097Z,0.77
2023-01-07T21:55:20.933Z,0.73
2023-01-07T21:57:47.695Z,0.75
2023-01-07T22:00:15.355Z,0.80
2023-01-07T22:02:42.104Z,0.73
2023-01-07T22:05:09.509Z,0.67
2023-01-07T22:07:36.236Z,0.64
2023-01-07T22:10:03.438Z,0.61
2023-01-07T22:12:30.224Z,0.64
2023-01-07T22:14:57.147Z,0.55
2023-01-07T22:17:24.576Z,0.51
2023-01-07T22:19:51.419Z,0.49
2023-01-07T22:22:20.773Z,0.44
2023-01-07T22:24:47.569Z,0.46
2023-01-07T22:27:14.598Z,0.43
2023-01-07T22:29:42.285Z,0.40
2023-01-07T22:32:09.085Z,0.45
2023-01-07T22:34:35.851Z,0.45
2023-01-07T22:37:11.286Z,0.44
2023-01-07T22:39:51.921Z,0.40
2023-01-07T22:42:33.355Z,0.35
2023-01-07T22:45:10.766Z,0.41
2023-01-07T22:47:42.194Z,0.38
2023-01-07T22:50:10.244Z,0.32
2023-01-07T22:52:38.140Z,0.37
2023-01-07T22:55:05.878Z,0.33
2023-01-07T22:57:34.560Z,0.34
2023-01-07T23:00:01.284Z,0.33
2023-01-07T23:02:28.528Z,0.28
2023-01-07T23:04:55.231Z,0.26
2023-01-07T23:07:21.976Z,0.19
2023-01-07T23:09:50.763Z,0.19
2023-01-07T23:12:18.391Z,0.13
2023-01-07T23:14:45.323Z,0.06
2023-01-07T23:17:12.180Z,0.07
2023-01-07T23:19:38.960Z,0.05
2023-01-07T23:22:05.790Z,0.07
2023-01-07T23:24:32.528Z,0.05
2023-01-07T23:26:59.476Z,0.05
2023-01-07T23:29:26.415Z,0.00
2023-01-07T23:31:53.214Z,0.01
2023-01-07T23:34:20.144Z,0.03
2023-01-07T23:36:46.865Z,-0.01
2023-01-07T23:39:13.738Z,-0.06
2023-01-07T23:41:40.635Z,-0.09
2023-01-07T23:44:07.501Z,-0.13
2023-01-07T23:46:34.313Z,-0.09
2023-01-07T23:49:01.101Z,-0.04
2023-01-07T23:51:27.943Z,-0.09
2023-01-07T23:53:54.813Z,-0.06
2023-01-07T23:56:22.265Z,-0.07
2023-01-07T23:58:50.083Z,-0.19
